Alden, Alabama
Current Conditions -  °F | °C
As of 5:51 PM on Friday 31 Oct 2014 (Local Time) from KBHM Reporting Station
Overcast Overcast  
Wind Chill: 55°   Ceiling: 2300
Heat Index: 55°   Visibility: 10mi
Dew Point: 46°   Wind: 20mph
Humidity: 72%   Direction: 350°N
Pressure: 30.03"   Gusts: 31mph
Location:  33.652°N, 86.9784°W
Report Text: KBHM 312251Z 35017G27KT 10SM BKN023 BKN036 OVC046 13/08 A3003 RMK AO2 PK WND 35030/2227
Loading
Personal Weather Stations






























Interactive Weather Map
Tropical Storm Tracking
New forecast layout! Learn more

10-Day Weather Forecast

Advertisements
Track Severe Weather on mobile